sensor_id;sensor_type;location;lat;lon;timestamp;pressure;altitude;pressure_sealevel;temperature;humidity
61287;BME280;56412;53.148;8.204;2022-11-20T00:00:25;101316.56;;;6.82;47.05
61287;BME280;56412;53.148;8.204;2022-11-20T00:02:50;101321.72;;;6.82;46.93
61287;BME280;56412;53.148;8.204;2022-11-20T00:05:15;101318.56;;;6.73;47.32
61287;BME280;56412;53.148;8.204;2022-11-20T00:07:41;101320.06;;;6.80;46.97
61287;BME280;56412;53.148;8.204;2022-11-20T00:10:06;101318.16;;;6.85;47.15
61287;BME280;56412;53.148;8.204;2022-11-20T00:12:32;101317.09;;;6.37;48.00
61287;BME280;56412;53.148;8.204;2022-11-20T00:14:57;101316.94;;;6.70;47.88
61287;BME280;56412;53.148;8.204;2022-11-20T00:17:23;101309.72;;;6.81;47.54
61287;BME280;56412;53.148;8.204;2022-11-20T00:19:48;101311.25;;;6.87;47.30
61287;BME280;56412;53.148;8.204;2022-11-20T00:22:13;101313.13;;;6.82;47.08
61287;BME280;56412;53.148;8.204;2022-11-20T00:24:39;101314.00;;;6.82;47.46
61287;BME280;56412;53.148;8.204;2022-11-20T00:27:04;101314.34;;;6.97;46.79
61287;BME280;56412;53.148;8.204;2022-11-20T00:29:29;101310.72;;;6.77;47.07
61287;BME280;56412;53.148;8.204;2022-11-20T00:31:55;101312.16;;;6.59;48.19
61287;BME280;56412;53.148;8.204;2022-11-20T00:34:20;101309.88;;;6.50;47.63
61287;BME280;56412;53.148;8.204;2022-11-20T00:36:45;101313.50;;;6.15;48.43
61287;BME280;56412;53.148;8.204;2022-11-20T00:39:10;101308.84;;;5.67;49.61
61287;BME280;56412;53.148;8.204;2022-11-20T00:41:36;101315.56;;;6.04;48.78
61287;BME280;56412;53.148;8.204;2022-11-20T00:44:01;101298.91;;;6.44;48.60
61287;BME280;56412;53.148;8.204;2022-11-20T00:46:27;101305.50;;;6.52;47.96
61287;BME280;56412;53.148;8.204;2022-11-20T00:48:53;101304.88;;;6.72;47.11
61287;BME280;56412;53.148;8.204;2022-11-20T00:51:19;101305.81;;;6.70;47.65
61287;BME280;56412;53.148;8.204;2022-11-20T00:53:47;101307.88;;;6.58;48.14
61287;BME280;56412;53.148;8.204;2022-11-20T00:56:13;101308.84;;;6.56;48.28
61287;BME280;56412;53.148;8.204;2022-11-20T00:58:41;101312.91;;;6.62;48.10
61287;BME280;56412;53.148;8.204;2022-11-20T01:01:15;101305.09;;;6.65;47.15
61287;BME280;56412;53.148;8.204;2022-11-20T01:03:46;101307.88;;;6.85;47.44
61287;BME280;56412;53.148;8.204;2022-11-20T01:06:15;101311.66;;;7.00;47.55
61287;BME280;56412;53.148;8.204;2022-11-20T01:08:45;101303.31;;;6.93;46.72
61287;BME280;56412;53.148;8.204;2022-11-20T01:11:12;101304.22;;;6.66;47.61
61287;BME280;56412;53.148;8.204;2022-11-20T01:13:39;101311.22;;;6.89;47.11
61287;BME280;56412;53.148;8.204;2022-11-20T01:16:13;101304.72;;;6.77;47.70
61287;BME280;56412;53.148;8.204;2022-11-20T01:18:40;101309.09;;;6.47;47.82
61287;BME280;56412;53.148;8.204;2022-11-20T01:21:08;101307.09;;;6.00;49.14
61287;BME280;56412;53.148;8.204;2022-11-20T01:23:36;101305.38;;;6.01;49.54
61287;BME280;56412;53.148;8.204;2022-11-20T01:26:04;101299.63;;;6.21;48.70
61287;BME280;56412;53.148;8.204;2022-11-20T01:28:31;101288.81;;;6.37;48.16
61287;BME280;56412;53.148;8.204;2022-11-20T01:30:56;101297.44;;;6.63;47.59
61287;BME280;56412;53.148;8.204;2022-11-20T01:33:22;101296.53;;;6.37;47.96
61287;BME280;56412;53.148;8.204;2022-11-20T01:35:47;101290.06;;;6.52;48.59
61287;BME280;56412;53.148;8.204;2022-11-20T01:38:14;101287.97;;;6.09;48.72
61287;BME280;56412;53.148;8.204;2022-11-20T01:40:40;101287.38;;;6.55;48.44
61287;BME280;56412;53.148;8.204;2022-11-20T01:43:16;101279.44;;;6.35;48.86
61287;BME280;56412;53.148;8.204;2022-11-20T01:48:28;101279.66;;;6.55;47.85
61287;BME280;56412;53.148;8.204;2022-11-20T01:50:58;101276.31;;;6.53;48.40
61287;BME280;56412;53.148;8.204;2022-11-20T01:53:25;101271.72;;;6.62;48.20
61287;BME280;56412;53.148;8.204;2022-11-20T01:55:56;101274.72;;;6.76;47.78
61287;BME280;56412;53.148;8.204;2022-11-20T01:58:25;101268.13;;;6.67;47.82
61287;BME280;56412;53.148;8.204;2022-11-20T02:00:55;101266.84;;;6.80;47.65
61287;BME280;56412;53.148;8.204;2022-11-20T02:03:21;101269.34;;;6.82;47.72
61287;BME280;56412;53.148;8.204;2022-11-20T02:05:51;101265.91;;;6.83;47.80
61287;BME280;56412;53.148;8.204;2022-11-20T02:08:17;101258.88;;;6.62;47.94
61287;BME280;56412;53.148;8.204;2022-11-20T02:10:45;101253.75;;;6.87;47.45
61287;BME280;56412;53.148;8.204;2022-11-20T02:13:10;101246.00;;;7.12;46.33
61287;BME280;56412;53.148;8.204;2022-11-20T02:15:54;101250.69;;;7.25;46.33
61287;BME280;56412;53.148;8.204;2022-11-20T02:18:20;101250.06;;;6.69;47.44
61287;BME280;56412;53.148;8.204;2022-11-20T02:20:47;101241.03;;;6.82;47.38
61287;BME280;56412;53.148;8.204;2022-11-20T02:26:03;101231.69;;;7.04;46.54
61287;BME280;56412;53.148;8.204;2022-11-20T02:28:33;101244.09;;;7.18;45.97
61287;BME280;56412;53.148;8.204;2022-11-20T02:30:58;101237.34;;;7.14;46.16
61287;BME280;56412;53.148;8.204;2022-11-20T02:33:23;101244.03;;;6.70;47.23
61287;BME280;56412;53.148;8.204;2022-11-20T02:35:49;101252.53;;;6.97;46.89
61287;BME280;56412;53.148;8.204;2022-11-20T02:38:14;101250.22;;;7.14;46.38
61287;BME280;56412;53.148;8.204;2022-11-20T02:40:40;101255.91;;;7.24;45.69
61287;BME280;56412;53.148;8.204;2022-11-20T02:43:06;101248.19;;;7.24;45.95
61287;BME280;56412;53.148;8.204;2022-11-20T02:45:31;101239.41;;;7.30;45.50
61287;BME280;56412;53.148;8.204;2022-11-20T02:47:57;101226.59;;;7.03;46.00
61287;BME280;56412;53.148;8.204;2022-11-20T02:50:22;101229.25;;;7.25;45.78
61287;BME280;56412;53.148;8.204;2022-11-20T02:52:47;101224.81;;;7.28;45.60
61287;BME280;56412;53.148;8.204;2022-11-20T02:55:13;101217.63;;;7.38;45.68
61287;BME280;56412;53.148;8.204;2022-11-20T02:57:38;101219.66;;;7.28;45.45
61287;BME280;56412;53.148;8.204;2022-11-20T03:00:04;101219.50;;;7.33;45.79
61287;BME280;56412;53.148;8.204;2022-11-20T03:02:31;101210.38;;;7.24;45.75
61287;BME280;56412;53.148;8.204;2022-11-20T03:04:57;101209.03;;;6.89;46.19
61287;BME280;56412;53.148;8.204;2022-11-20T03:07:23;101206.19;;;6.97;46.84
61287;BME280;56412;53.148;8.204;2022-11-20T03:09:48;101195.28;;;7.14;46.18
61287;BME280;56412;53.148;8.204;2022-11-20T03:12:14;101198.97;;;6.83;46.94
61287;BME280;56412;53.148;8.204;2022-11-20T03:14:39;101206.28;;;6.94;46.31
61287;BME280;56412;53.148;8.204;2022-11-20T03:17:05;101204.16;;;7.07;46.33
61287;BME280;56412;53.148;8.204;2022-11-20T03:19:30;101190.81;;;7.19;45.90
61287;BME280;56412;53.148;8.204;2022-11-20T03:21:56;101200.94;;;7.23;46.00
61287;BME280;56412;53.148;8.204;2022-11-20T03:24:21;101194.06;;;6.75;46.69
61287;BME280;56412;53.148;8.204;2022-11-20T03:26:47;101185.94;;;6.09;47.15
61287;BME280;56412;53.148;8.204;2022-11-20T03:29:12;101179.13;;;6.85;46.97
61287;BME280;56412;53.148;8.204;2022-11-20T03:31:38;101187.53;;;6.40;47.20
61287;BME280;56412;53.148;8.204;2022-11-20T03:34:05;101191.00;;;6.39;47.02
61287;BME280;56412;53.148;8.204;2022-11-20T03:36:32;101190.72;;;5.94;48.59
61287;BME280;56412;53.148;8.204;2022-11-20T03:38:58;101187.59;;;6.12;47.69
61287;BME280;56412;53.148;8.204;2022-11-20T03:41:24;101184.25;;;5.80;48.92
61287;BME280;56412;53.148;8.204;2022-11-20T03:43:52;101182.34;;;6.15;47.58
61287;BME280;56412;53.148;8.204;2022-11-20T03:46:22;101164.84;;;6.51;47.75
61287;BME280;56412;53.148;8.204;2022-11-20T03:48:48;101157.97;;;6.77;47.32
61287;BME280;56412;53.148;8.204;2022-11-20T03:51:18;101157.09;;;7.01;46.66
61287;BME280;56412;53.148;8.204;2022-11-20T03:53:48;101157.34;;;7.19;45.65
61287;BME280;56412;53.148;8.204;2022-11-20T03:56:16;101163.94;;;6.52;47.55
61287;BME280;56412;53.148;8.204;2022-11-20T03:58:43;101166.25;;;6.85;47.11
61287;BME280;56412;53.148;8.204;2022-11-20T04:01:18;101163.97;;;6.77;46.53
61287;BME280;56412;53.148;8.204;2022-11-20T04:03:46;101153.50;;;6.57;48.02
61287;BME280;56412;53.148;8.204;2022-11-20T04:06:13;101146.28;;;6.92;46.72
61287;BME280;56412;53.148;8.204;2022-11-20T04:08:49;101153.34;;;6.62;47.88
61287;BME280;56412;53.148;8.204;2022-11-20T04:11:15;101164.75;;;6.54;47.79
61287;BME280;56412;53.148;8.204;2022-11-20T04:13:46;101180.66;;;6.66;47.85
61287;BME280;56412;53.148;8.204;2022-11-20T04:16:16;101176.31;;;6.68;47.76
61287;BME280;56412;53.148;8.204;2022-11-20T04:18:42;101173.69;;;6.44;48.44
61287;BME280;56412;53.148;8.204;2022-11-20T04:21:08;101168.41;;;5.94;49.90
61287;BME280;56412;53.148;8.204;2022-11-20T04:23:34;101166.25;;;6.35;48.96
61287;BME280;56412;53.148;8.204;2022-11-20T04:26:06;101165.41;;;6.34;48.94
61287;BME280;56412;53.148;8.204;2022-11-20T04:28:33;101162.06;;;6.32;48.82
61287;BME280;56412;53.148;8.204;2022-11-20T04:31:10;101159.31;;;6.87;47.34
61287;BME280;56412;53.148;8.204;2022-11-20T04:33:40;101160.88;;;6.68;48.22
61287;BME280;56412;53.148;8.204;2022-11-20T04:36:07;101160.84;;;6.93;47.54
61287;BME280;56412;53.148;8.204;2022-11-20T04:38:35;101145.34;;;6.94;47.73
61287;BME280;56412;53.148;8.204;2022-11-20T04:41:01;101148.56;;;7.23;46.90
61287;BME280;56412;53.148;8.204;2022-11-20T04:43:28;101155.69;;;7.16;47.15
61287;BME280;56412;53.148;8.204;2022-11-20T04:45:54;101155.22;;;7.07;47.46
61287;BME280;56412;53.148;8.204;2022-11-20T04:48:20;101151.28;;;7.20;46.84
61287;BME280;56412;53.148;8.204;2022-11-20T04:50:46;101138.03;;;7.29;47.10
61287;BME280;56412;53.148;8.204;2022-11-20T04:53:11;101150.31;;;6.99;47.65
61287;BME280;56412;53.148;8.204;2022-11-20T04:55:36;101149.75;;;6.91;48.13
61287;BME280;56412;53.148;8.204;2022-11-20T04:58:02;101149.41;;;7.23;47.55
61287;BME280;56412;53.148;8.204;2022-11-20T05:00:27;101136.63;;;7.44;46.82
61287;BME280;56412;53.148;8.204;2022-11-20T05:02:52;101138.28;;;7.23;47.55
61287;BME280;56412;53.148;8.204;2022-11-20T05:05:17;101142.44;;;7.03;47.90
61287;BME280;56412;53.148;8.204;2022-11-20T05:07:43;101146.41;;;7.12;47.54
61287;BME280;56412;53.148;8.204;2022-11-20T05:10:08;101144.19;;;7.26;47.11
61287;BME280;56412;53.148;8.204;2022-11-20T05:12:34;101136.34;;;7.06;47.06
61287;BME280;56412;53.148;8.204;2022-11-20T05:14:59;101144.38;;;7.20;46.96
61287;BME280;56412;53.148;8.204;2022-11-20T05:17:24;101147.16;;;6.91;47.56
61287;BME280;56412;53.148;8.204;2022-11-20T05:19:49;101149.56;;;6.72;47.98
61287;BME280;56412;53.148;8.204;2022-11-20T05:22:15;101140.97;;;6.96;47.88
61287;BME280;56412;53.148;8.204;2022-11-20T05:24:40;101139.00;;;6.79;48.08
61287;BME280;56412;53.148;8.204;2022-11-20T05:27:05;101132.72;;;6.87;47.50
61287;BME280;56412;53.148;8.204;2022-11-20T05:29:31;101128.19;;;6.70;47.89
61287;BME280;56412;53.148;8.204;2022-11-20T05:31:56;101128.31;;;7.14;47.06
61287;BME280;56412;53.148;8.204;2022-11-20T05:34:21;101123.50;;;7.04;47.52
61287;BME280;56412;53.148;8.204;2022-11-20T05:36:47;101116.56;;;7.30;46.77
61287;BME280;56412;53.148;8.204;2022-11-20T05:39:12;101132.28;;;7.22;46.86
61287;BME280;56412;53.148;8.204;2022-11-20T05:41:37;101128.31;;;7.14;47.15
61287;BME280;56412;53.148;8.204;2022-11-20T05:44:02;101117.38;;;7.31;46.67
61287;BME280;56412;53.148;8.204;2022-11-20T05:46:28;101114.56;;;7.15;46.87
61287;BME280;56412;53.148;8.204;2022-11-20T05:48:53;101110.69;;;7.26;47.11
61287;BME280;56412;53.148;8.204;2022-11-20T05:51:19;101108.41;;;7.41;46.24
61287;BME280;56412;53.148;8.204;2022-11-20T05:53:45;101108.91;;;7.50;46.54
61287;BME280;56412;53.148;8.204;2022-11-20T05:56:11;101102.97;;;7.48;46.04
61287;BME280;56412;53.148;8.204;2022-11-20T05:58:38;101094.97;;;7.55;45.54
61287;BME280;56412;53.148;8.204;2022-11-20T06:01:05;101088.22;;;7.30;46.52
61287;BME280;56412;53.148;8.204;2022-11-20T06:03:36;101074.72;;;7.45;46.38
61287;BME280;56412;53.148;8.204;2022-11-20T06:06:03;101080.94;;;7.40;46.36
61287;BME280;56412;53.148;8.204;2022-11-20T06:08:29;101089.03;;;7.31;46.27
61287;BME280;56412;53.148;8.204;2022-11-20T06:10:56;101093.16;;;7.35;46.02
61287;BME280;56412;53.148;8.204;2022-11-20T06:13:21;101086.94;;;7.18;46.01
61287;BME280;56412;53.148;8.204;2022-11-20T06:15:50;101079.34;;;7.37;46.42
61287;BME280;56412;53.148;8.204;2022-11-20T06:18:16;101087.13;;;7.36;45.93
61287;BME280;56412;53.148;8.204;2022-11-20T06:20:41;101084.72;;;7.31;46.50
61287;BME280;56412;53.148;8.204;2022-11-20T06:23:06;101089.53;;;7.40;46.28
61287;BME280;56412;53.148;8.204;2022-11-20T06:25:32;101089.47;;;7.42;45.92
61287;BME280;56412;53.148;8.204;2022-11-20T06:27:57;101091.25;;;7.18;46.22
61287;BME280;56412;53.148;8.204;2022-11-20T06:30:22;101089.00;;;7.09;46.46
61287;BME280;56412;53.148;8.204;2022-11-20T06:32:47;101095.09;;;7.30;45.92
61287;BME280;56412;53.148;8.204;2022-11-20T06:35:13;101097.31;;;7.39;45.90
61287;BME280;56412;53.148;8.204;2022-11-20T06:37:38;101086.06;;;7.41;46.14
61287;BME280;56412;53.148;8.204;2022-11-20T06:40:03;101087.50;;;7.48;45.53
61287;BME280;56412;53.148;8.204;2022-11-20T06:42:29;101091.63;;;7.31;45.79
61287;BME280;56412;53.148;8.204;2022-11-20T06:44:54;101087.78;;;6.95;46.26
61287;BME280;56412;53.148;8.204;2022-11-20T06:47:20;101089.50;;;7.18;46.39
61287;BME280;56412;53.148;8.204;2022-11-20T06:49:45;101090.59;;;7.35;45.61
61287;BME280;56412;53.148;8.204;2022-11-20T06:52:10;101092.19;;;7.39;45.61
61287;BME280;56412;53.148;8.204;2022-11-20T06:54:35;101104.28;;;7.37;45.75
61287;BME280;56412;53.148;8.204;2022-11-20T06:57:01;101106.72;;;7.40;45.43
61287;BME280;56412;53.148;8.204;2022-11-20T06:59:26;101098.94;;;7.41;45.48
61287;BME280;56412;53.148;8.204;2022-11-20T07:01:51;101101.28;;;7.47;45.03
61287;BME280;56412;53.148;8.204;2022-11-20T07:04:17;101097.13;;;7.43;45.29
61287;BME280;56412;53.148;8.204;2022-11-20T07:06:42;101099.81;;;7.40;45.46
61287;BME280;56412;53.148;8.204;2022-11-20T07:09:07;101098.13;;;7.17;45.33
61287;BME280;56412;53.148;8.204;2022-11-20T07:11:33;101090.22;;;7.22;45.41
61287;BME280;56412;53.148;8.204;2022-11-20T07:13:58;101093.50;;;6.80;46.38
61287;BME280;56412;53.148;8.204;2022-11-20T07:16:23;101087.34;;;6.84;46.50
61287;BME280;56412;53.148;8.204;2022-11-20T07:18:48;101094.22;;;6.83;45.66
61287;BME280;56412;53.148;8.204;2022-11-20T07:21:14;101104.69;;;6.79;46.68
61287;BME280;56412;53.148;8.204;2022-11-20T07:23:39;101095.13;;;7.06;45.57
61287;BME280;56412;53.148;8.204;2022-11-20T07:26:05;101105.81;;;7.19;45.74
61287;BME280;56412;53.148;8.204;2022-11-20T07:28:33;101102.09;;;7.26;45.62
61287;BME280;56412;53.148;8.204;2022-11-20T07:30:58;101101.97;;;7.29;45.14
61287;BME280;56412;53.148;8.204;2022-11-20T07:33:24;101097.72;;;7.28;45.56
61287;BME280;56412;53.148;8.204;2022-11-20T07:35:49;101103.56;;;7.33;45.46
61287;BME280;56412;53.148;8.204;2022-11-20T07:38:14;101099.81;;;7.18;45.34
61287;BME280;56412;53.148;8.204;2022-11-20T07:40:40;101102.28;;;7.21;45.05
61287;BME280;56412;53.148;8.204;2022-11-20T07:43:05;101105.84;;;6.94;45.91
61287;BME280;56412;53.148;8.204;2022-11-20T07:45:30;101095.28;;;6.78;46.54
61287;BME280;56412;53.148;8.204;2022-11-20T07:47:56;101097.97;;;6.98;45.43
61287;BME280;56412;53.148;8.204;2022-11-20T07:50:21;101099.09;;;7.15;45.41
61287;BME280;56412;53.148;8.204;2022-11-20T07:52:46;101098.88;;;7.21;45.20
61287;BME280;56412;53.148;8.204;2022-11-20T07:55:12;101096.72;;;6.85;46.20
61287;BME280;56412;53.148;8.204;2022-11-20T07:57:37;101100.78;;;6.92;46.35
61287;BME280;56412;53.148;8.204;2022-11-20T08:00:03;101096.41;;;7.18;45.82
61287;BME280;56412;53.148;8.204;2022-11-20T08:02:31;101111.28;;;7.33;45.44
61287;BME280;56412;53.148;8.204;2022-11-20T08:04:57;101107.44;;;7.43;45.00
61287;BME280;56412;53.148;8.204;2022-11-20T08:07:22;101104.75;;;7.24;45.60
61287;BME280;56412;53.148;8.204;2022-11-20T08:09:47;101102.47;;;7.39;45.08
61287;BME280;56412;53.148;8.204;2022-11-20T08:12:19;101101.56;;;7.40;45.36
61287;BME280;56412;53.148;8.204;2022-11-20T08:15:04;101101.94;;;7.53;45.06
61287;BME280;56412;53.148;8.204;2022-11-20T08:17:30;101105.22;;;7.34;45.21
61287;BME280;56412;53.148;8.204;2022-11-20T08:19:55;101100.19;;;7.31;45.30
61287;BME280;56412;53.148;8.204;2022-11-20T08:22:21;101104.16;;;7.40;45.12
61287;BME280;56412;53.148;8.204;2022-11-20T08:24:46;101100.06;;;7.34;44.74
61287;BME280;56412;53.148;8.204;2022-11-20T08:27:12;101095.88;;;7.32;45.01
61287;BME280;56412;53.148;8.204;2022-11-20T08:29:38;101099.81;;;7.18;45.07
61287;BME280;56412;53.148;8.204;2022-11-20T08:32:03;101100.06;;;7.34;45.22
61287;BME280;56412;53.148;8.204;2022-11-20T08:34:28;101101.28;;;7.47;45.18
61287;BME280;56412;53.148;8.204;2022-11-20T08:36:54;101095.63;;;7.38;45.01
61287;BME280;56412;53.148;8.204;2022-11-20T08:39:19;101110.94;;;6.72;45.92
61287;BME280;56412;53.148;8.204;2022-11-20T08:41:44;101102.44;;;6.70;46.45
61287;BME280;56412;53.148;8.204;2022-11-20T08:44:09;101111.69;;;6.99;46.41
61287;BME280;56412;53.148;8.204;2022-11-20T08:46:36;101103.72;;;7.28;44.91
61287;BME280;56412;53.148;8.204;2022-11-20T08:49:03;101096.28;;;7.21;45.52
61287;BME280;56412;53.148;8.204;2022-11-20T08:51:29;101099.63;;;7.23;45.55
61287;BME280;56412;53.148;8.204;2022-11-20T08:53:55;101104.03;;;6.74;45.46
61287;BME280;56412;53.148;8.204;2022-11-20T08:56:21;101105.75;;;6.97;45.88
61287;BME280;56412;53.148;8.204;2022-11-20T08:58:46;101103.91;;;7.24;45.22
61287;BME280;56412;53.148;8.204;2022-11-20T09:01:11;101107.78;;;7.12;45.30
61287;BME280;56412;53.148;8.204;2022-11-20T09:03:36;101104.44;;;7.09;45.54
61287;BME280;56412;53.148;8.204;2022-11-20T09:06:03;101092.88;;;7.42;44.74
61287;BME280;56412;53.148;8.204;2022-11-20T09:08:31;101089.41;;;7.65;44.62
61287;BME280;56412;53.148;8.204;2022-11-20T09:10:57;101094.75;;;7.39;44.88
61287;BME280;56412;53.148;8.204;2022-11-20T09:13:24;101092.09;;;7.40;44.35
61287;BME280;56412;53.148;8.204;2022-11-20T09:15:57;101095.22;;;7.48;44.33
61287;BME280;56412;53.148;8.204;2022-11-20T09:18:24;101092.34;;;7.78;43.93
61287;BME280;56412;53.148;8.204;2022-11-20T09:20:51;101093.19;;;7.57;44.20
61287;BME280;56412;53.148;8.204;2022-11-20T09:23:16;101094.84;;;7.58;43.87
61287;BME280;56412;53.148;8.204;2022-11-20T09:25:42;101095.56;;;7.83;43.63
61287;BME280;56412;53.148;8.204;2022-11-20T09:28:08;101091.03;;;8.10;44.01
61287;BME280;56412;53.148;8.204;2022-11-20T09:30:34;101099.41;;;8.15;42.87
61287;BME280;56412;53.148;8.204;2022-11-20T09:32:59;101103.41;;;8.23;42.92
61287;BME280;56412;53.148;8.204;2022-11-20T09:35:25;101107.38;;;7.89;42.90
61287;BME280;56412;53.148;8.204;2022-11-20T09:37:50;101108.88;;;7.94;42.89
61287;BME280;56412;53.148;8.204;2022-11-20T09:40:18;101112.06;;;7.79;43.09
61287;BME280;56412;53.148;8.204;2022-11-20T09:45:46;101109.25;;;7.41;44.27
61287;BME280;56412;53.148;8.204;2022-11-20T09:49:23;101104.72;;;7.90;44.27
61287;BME280;56412;53.148;8.204;2022-11-20T09:54:35;101104.72;;;7.90;43.01
61287;BME280;56412;53.148;8.204;2022-11-20T09:57:20;101108.25;;;7.88;42.97
61287;BME280;56412;53.148;8.204;2022-11-20T09:59:56;101103.84;;;7.69;43.50
61287;BME280;56412;53.148;8.204;2022-11-20T10:02:29;101095.41;;;8.08;42.77
61287;BME280;56412;53.148;8.204;2022-11-20T10:05:04;101096.13;;;7.69;42.87
61287;BME280;56412;53.148;8.204;2022-11-20T10:07:40;101097.06;;;7.89;42.76
61287;BME280;56412;53.148;8.204;2022-11-20T10:10:29;101090.91;;;8.13;43.06
61287;BME280;56412;53.148;8.204;2022-11-20T10:24:56;101074.38;;;8.17;42.03
61287;BME280;56412;53.148;8.204;2022-11-20T10:27:49;101078.84;;;8.55;41.35
61287;BME280;56412;53.148;8.204;2022-11-20T10:30:36;101078.38;;;8.66;41.42
61287;BME280;56412;53.148;8.204;2022-11-20T10:33:11;101073.91;;;8.88;40.95
61287;BME280;56412;53.148;8.204;2022-11-20T10:38:34;101069.66;;;8.68;40.11
61287;BME280;56412;53.148;8.204;2022-11-20T10:41:04;101068.13;;;8.83;40.33
61287;BME280;56412;53.148;8.204;2022-11-20T10:43:50;101071.69;;;8.99;40.05
61287;BME280;56412;53.148;8.204;2022-11-20T10:46:20;101062.03;;;9.03;39.91
61287;BME280;56412;53.148;8.204;2022-11-20T10:48:47;101068.91;;;9.04;40.43
61287;BME280;56412;53.148;8.204;2022-11-20T10:53:58;101062.59;;;8.91;40.77
61287;BME280;56412;53.148;8.204;2022-11-20T10:56:56;101074.63;;;8.92;40.19
61287;BME280;56412;53.148;8.204;2022-11-20T10:59:41;101061.69;;;8.13;41.04
61287;BME280;56412;53.148;8.204;2022-11-20T11:02:31;101064.03;;;8.38;40.68
61287;BME280;56412;53.148;8.204;2022-11-20T11:05:07;101053.94;;;8.73;40.13
61287;BME280;56412;53.148;8.204;2022-11-20T11:07:39;101058.59;;;8.64;40.06
61287;BME280;56412;53.148;8.204;2022-11-20T11:10:19;101052.41;;;8.69;39.64
61287;BME280;56412;53.148;8.204;2022-11-20T11:12:49;101057.25;;;8.95;40.18
61287;BME280;56412;53.148;8.204;2022-11-20T11:15:23;101054.44;;;9.00;39.22
61287;BME280;56412;53.148;8.204;2022-11-20T11:17:54;101048.50;;;8.79;39.83
61287;BME280;56412;53.148;8.204;2022-11-20T11:20:21;101049.47;;;8.76;39.11
61287;BME280;56412;53.148;8.204;2022-11-20T11:22:52;101039.13;;;8.38;40.45
61287;BME280;56412;53.148;8.204;2022-11-20T11:25:25;101038.25;;;7.97;39.30
61287;BME280;56412;53.148;8.204;2022-11-20T11:27:56;101041.94;;;7.91;40.37
61287;BME280;56412;53.148;8.204;2022-11-20T11:30:24;101039.72;;;7.62;40.35
61287;BME280;56412;53.148;8.204;2022-11-20T11:33:01;101035.50;;;8.02;40.38
61287;BME280;56412;53.148;8.204;2022-11-20T11:35:29;101036.13;;;8.48;39.37
61287;BME280;56412;53.148;8.204;2022-11-20T11:38:01;101034.56;;;8.83;39.37
61287;BME280;56412;53.148;8.204;2022-11-20T11:40:30;101027.34;;;8.90;38.50
61287;BME280;56412;53.148;8.204;2022-11-20T11:42:58;101026.22;;;9.14;38.24
61287;BME280;56412;53.148;8.204;2022-11-20T11:45:26;101032.44;;;9.10;38.79
61287;BME280;56412;53.148;8.204;2022-11-20T11:47:52;101027.78;;;8.80;38.86
61287;BME280;56412;53.148;8.204;2022-11-20T11:50:22;101030.94;;;9.06;37.96
61287;BME280;56412;53.148;8.204;2022-11-20T11:55:20;101018.78;;;9.25;38.10
61287;BME280;56412;53.148;8.204;2022-11-20T11:58:13;101015.66;;;9.55;37.88
61287;BME280;56412;53.148;8.204;2022-11-20T12:07:32;101009.28;;;9.62;37.48
61287;BME280;56412;53.148;8.204;2022-11-20T12:10:05;101006.69;;;9.80;37.31
61287;BME280;56412;53.148;8.204;2022-11-20T12:12:38;101000.97;;;9.55;37.48
61287;BME280;56412;53.148;8.204;2022-11-20T12:15:13;100995.06;;;9.53;37.76
61287;BME280;56412;53.148;8.204;2022-11-20T12:17:48;100991.63;;;9.70;37.28
61287;BME280;56412;53.148;8.204;2022-11-20T12:20:13;100978.44;;;9.92;37.77
61287;BME280;56412;53.148;8.204;2022-11-20T12:25:19;100973.81;;;9.47;38.01
61287;BME280;56412;53.148;8.204;2022-11-20T12:30:28;100986.59;;;9.67;38.42
61287;BME280;56412;53.148;8.204;2022-11-20T12:47:52;100963.06;;;9.20;39.00
61287;BME280;56412;53.148;8.204;2022-11-20T12:53:16;100959.19;;;9.98;38.54
61287;BME280;56412;53.148;8.204;2022-11-20T12:59:06;100956.09;;;10.24;37.57
61287;BME280;56412;53.148;8.204;2022-11-20T13:01:51;100953.94;;;9.82;38.33
61287;BME280;56412;53.148;8.204;2022-11-20T13:07:02;100960.50;;;9.54;38.76
61287;BME280;56412;53.148;8.204;2022-11-20T13:09:30;100956.63;;;9.63;38.21
61287;BME280;56412;53.148;8.204;2022-11-20T13:12:02;100949.25;;;8.84;39.68
61287;BME280;56412;53.148;8.204;2022-11-20T13:14:53;100956.56;;;9.47;38.95
61287;BME280;56412;53.148;8.204;2022-11-20T13:17:43;100952.91;;;9.34;40.11
61287;BME280;56412;53.148;8.204;2022-11-20T13:20:17;100955.94;;;9.42;38.67
61287;BME280;56412;53.148;8.204;2022-11-20T13:22:45;100960.56;;;9.88;38.32
61287;BME280;56412;53.148;8.204;2022-11-20T13:25:30;100959.22;;;10.14;37.71
61287;BME280;56412;53.148;8.204;2022-11-20T13:27:58;100946.94;;;10.98;36.70
61287;BME280;56412;53.148;8.204;2022-11-20T13:30:26;100956.50;;;11.28;35.61
61287;BME280;56412;53.148;8.204;2022-11-20T13:36:04;100942.16;;;13.21;34.09
61287;BME280;56412;53.148;8.204;2022-11-20T13:38:19;100941.84;;;14.66;32.42
61287;BME280;56412;53.148;8.204;2022-11-20T13:40:55;100950.63;;;15.13;30.88
61287;BME280;56412;53.148;8.204;2022-11-20T13:43:46;100940.44;;;15.57;30.78
61287;BME280;56412;53.148;8.204;2022-11-20T13:46:13;100937.91;;;15.44;30.84
61287;BME280;56412;53.148;8.204;2022-11-20T13:48:40;100942.53;;;15.05;31.34
61287;BME280;56412;53.148;8.204;2022-11-20T13:56:52;100921.41;;;13.07;33.11
61287;BME280;56412;53.148;8.204;2022-11-20T13:59:40;100928.13;;;12.69;33.13
61287;BME280;56412;53.148;8.204;2022-11-20T14:02:24;100919.53;;;12.55;33.14
61287;BME280;56412;53.148;8.204;2022-11-20T14:04:52;100917.75;;;12.55;32.92
61287;BME280;56412;53.148;8.204;2022-11-20T14:07:23;100911.78;;;12.26;33.62
61287;BME280;56412;53.148;8.204;2022-11-20T14:09:53;100907.91;;;12.04;34.41
61287;BME280;56412;53.148;8.204;2022-11-20T14:12:27;100910.47;;;11.76;34.15
61287;BME280;56412;53.148;8.204;2022-11-20T14:14:54;100917.59;;;11.58;34.69
61287;BME280;56412;53.148;8.204;2022-11-20T14:17:21;100912.00;;;11.50;35.19
61287;BME280;56412;53.148;8.204;2022-11-20T14:19:50;100913.00;;;11.33;34.23
61287;BME280;56412;53.148;8.204;2022-11-20T14:27:37;100901.78;;;10.07;34.60